sensor_id;sensor_type;location;lat;lon;timestamp;P1;durP1;ratioP1;P2;durP2;ratioP2
71183;SDS011;58887;51.980;4.464;2022-12-18T00:01:23;28.86;;;24.53;;
71183;SDS011;58887;51.980;4.464;2022-12-18T00:03:51;29.57;;;25.18;;
71183;SDS011;58887;51.980;4.464;2022-12-18T00:06:18;27.91;;;23.84;;
71183;SDS011;58887;51.980;4.464;2022-12-18T00:08:45;28.63;;;24.47;;
71183;SDS011;58887;51.980;4.464;2022-12-18T00:11:11;27.49;;;23.89;;
71183;SDS011;58887;51.980;4.464;2022-12-18T00:13:39;27.38;;;23.80;;
71183;SDS011;58887;51.980;4.464;2022-12-18T00:16:06;26.92;;;23.57;;
71183;SDS011;58887;51.980;4.464;2022-12-18T00:18:35;28.46;;;24.41;;
71183;SDS011;58887;51.980;4.464;2022-12-18T00:21:04;27.32;;;23.82;;
71183;SDS011;58887;51.980;4.464;2022-12-18T00:23:32;25.41;;;22.64;;
71183;SDS011;58887;51.980;4.464;2022-12-18T00:26:00;26.97;;;23.92;;
71183;SDS011;58887;51.980;4.464;2022-12-18T00:28:26;27.23;;;23.64;;
71183;SDS011;58887;51.980;4.464;2022-12-18T00:31:05;27.78;;;23.89;;
71183;SDS011;58887;51.980;4.464;2022-12-18T00:33:33;28.57;;;24.60;;
71183;SDS011;58887;51.980;4.464;2022-12-18T00:36:00;26.41;;;23.53;;
71183;SDS011;58887;51.980;4.464;2022-12-18T00:38:27;28.68;;;25.26;;
71183;SDS011;58887;51.980;4.464;2022-12-18T00:40:53;27.15;;;23.82;;
71183;SDS011;58887;51.980;4.464;2022-12-18T00:43:18;27.25;;;23.87;;
71183;SDS011;58887;51.980;4.464;2022-12-18T00:45:43;26.86;;;23.49;;
71183;SDS011;58887;51.980;4.464;2022-12-18T00:48:09;27.03;;;23.91;;
71183;SDS011;58887;51.980;4.464;2022-12-18T00:50:34;29.39;;;25.64;;
71183;SDS011;58887;51.980;4.464;2022-12-18T00:53:00;27.83;;;24.37;;
71183;SDS011;58887;51.980;4.464;2022-12-18T00:55:25;27.96;;;24.16;;
71183;SDS011;58887;51.980;4.464;2022-12-18T00:57:51;26.73;;;23.47;;
71183;SDS011;58887;51.980;4.464;2022-12-18T01:00:17;28.40;;;24.64;;
71183;SDS011;58887;51.980;4.464;2022-12-18T01:02:43;30.96;;;25.98;;
71183;SDS011;58887;51.980;4.464;2022-12-18T01:05:09;29.89;;;25.51;;
71183;SDS011;58887;51.980;4.464;2022-12-18T01:07:36;30.48;;;25.79;;
71183;SDS011;58887;51.980;4.464;2022-12-18T01:10:03;30.58;;;25.53;;
71183;SDS011;58887;51.980;4.464;2022-12-18T01:12:29;29.70;;;24.79;;
71183;SDS011;58887;51.980;4.464;2022-12-18T01:14:55;28.85;;;24.35;;
71183;SDS011;58887;51.980;4.464;2022-12-18T01:17:20;29.15;;;24.83;;
71183;SDS011;58887;51.980;4.464;2022-12-18T01:19:46;29.93;;;25.06;;
71183;SDS011;58887;51.980;4.464;2022-12-18T01:22:11;29.35;;;25.28;;
71183;SDS011;58887;51.980;4.464;2022-12-18T01:24:37;29.26;;;25.12;;
71183;SDS011;58887;51.980;4.464;2022-12-18T01:27:02;28.63;;;24.73;;
71183;SDS011;58887;51.980;4.464;2022-12-18T01:29:28;29.07;;;24.84;;
71183;SDS011;58887;51.980;4.464;2022-12-18T01:31:56;28.44;;;24.58;;
71183;SDS011;58887;51.980;4.464;2022-12-18T01:34:25;28.57;;;24.28;;
71183;SDS011;58887;51.980;4.464;2022-12-18T01:36:50;28.73;;;24.79;;
71183;SDS011;58887;51.980;4.464;2022-12-18T01:39:17;27.68;;;23.84;;
71183;SDS011;58887;51.980;4.464;2022-12-18T01:41:43;28.54;;;24.69;;
71183;SDS011;58887;51.980;4.464;2022-12-18T01:49:59;28.90;;;24.97;;
71183;SDS011;58887;51.980;4.464;2022-12-18T01:52:36;29.65;;;25.14;;
71183;SDS011;58887;51.980;4.464;2022-12-18T01:55:07;30.29;;;25.74;;
71183;SDS011;58887;51.980;4.464;2022-12-18T01:57:34;29.59;;;25.28;;
71183;SDS011;58887;51.980;4.464;2022-12-18T02:00:02;27.46;;;23.71;;
71183;SDS011;58887;51.980;4.464;2022-12-18T02:02:34;26.84;;;23.32;;
71183;SDS011;58887;51.980;4.464;2022-12-18T02:05:00;28.22;;;24.22;;
71183;SDS011;58887;51.980;4.464;2022-12-18T02:10:32;28.95;;;25.26;;
71183;SDS011;58887;51.980;4.464;2022-12-18T02:13:45;29.73;;;25.34;;
71183;SDS011;58887;51.980;4.464;2022-12-18T02:19:00;28.17;;;24.51;;
71183;SDS011;58887;51.980;4.464;2022-12-18T02:21:45;28.54;;;24.85;;
71183;SDS011;58887;51.980;4.464;2022-12-18T02:24:31;28.43;;;24.54;;
71183;SDS011;58887;51.980;4.464;2022-12-18T02:27:07;28.67;;;24.84;;
71183;SDS011;58887;51.980;4.464;2022-12-18T02:29:39;27.44;;;23.89;;
71183;SDS011;58887;51.980;4.464;2022-12-18T02:32:11;28.87;;;25.27;;
71183;SDS011;58887;51.980;4.464;2022-12-18T02:34:42;29.02;;;24.93;;
71183;SDS011;58887;51.980;4.464;2022-12-18T02:37:11;29.42;;;25.27;;
71183;SDS011;58887;51.980;4.464;2022-12-18T02:39:41;28.79;;;24.82;;
71183;SDS011;58887;51.980;4.464;2022-12-18T02:42:11;27.77;;;24.56;;
71183;SDS011;58887;51.980;4.464;2022-12-18T02:44:44;26.42;;;23.63;;
71183;SDS011;58887;51.980;4.464;2022-12-18T02:47:12;25.67;;;23.00;;
71183;SDS011;58887;51.980;4.464;2022-12-18T02:52:46;25.70;;;22.97;;
71183;SDS011;58887;51.980;4.464;2022-12-18T02:58:20;25.88;;;22.72;;
71183;SDS011;58887;51.980;4.464;2022-12-18T03:03:51;24.77;;;21.77;;
71183;SDS011;58887;51.980;4.464;2022-12-18T03:06:24;24.43;;;22.26;;
71183;SDS011;58887;51.980;4.464;2022-12-18T03:08:57;24.89;;;22.06;;
71183;SDS011;58887;51.980;4.464;2022-12-18T03:11:27;25.08;;;21.88;;
71183;SDS011;58887;51.980;4.464;2022-12-18T03:14:17;24.41;;;21.85;;
71183;SDS011;58887;51.980;4.464;2022-12-18T03:16:48;24.03;;;21.37;;
71183;SDS011;58887;51.980;4.464;2022-12-18T03:19:18;24.49;;;21.51;;
71183;SDS011;58887;51.980;4.464;2022-12-18T03:21:50;23.95;;;21.05;;
71183;SDS011;58887;51.980;4.464;2022-12-18T03:24:19;23.82;;;21.35;;
71183;SDS011;58887;51.980;4.464;2022-12-18T03:26:50;23.76;;;20.72;;
71183;SDS011;58887;51.980;4.464;2022-12-18T03:29:22;21.47;;;19.45;;
71183;SDS011;58887;51.980;4.464;2022-12-18T03:32:15;23.07;;;20.27;;
71183;SDS011;58887;51.980;4.464;2022-12-18T03:34:49;22.57;;;20.30;;
71183;SDS011;58887;51.980;4.464;2022-12-18T03:37:18;22.07;;;19.51;;
71183;SDS011;58887;51.980;4.464;2022-12-18T03:39:44;22.86;;;20.07;;
71183;SDS011;58887;51.980;4.464;2022-12-18T03:42:29;21.76;;;19.55;;
71183;SDS011;58887;51.980;4.464;2022-12-18T03:47:57;21.07;;;19.17;;
71183;SDS011;58887;51.980;4.464;2022-12-18T03:50:40;22.02;;;19.48;;
71183;SDS011;58887;51.980;4.464;2022-12-18T03:53:24;21.91;;;19.45;;
71183;SDS011;58887;51.980;4.464;2022-12-18T03:55:55;21.68;;;19.30;;
71183;SDS011;58887;51.980;4.464;2022-12-18T03:58:24;21.58;;;19.01;;
71183;SDS011;58887;51.980;4.464;2022-12-18T04:00:54;21.13;;;19.14;;
71183;SDS011;58887;51.980;4.464;2022-12-18T04:03:24;22.40;;;19.79;;
71183;SDS011;58887;51.980;4.464;2022-12-18T04:05:54;22.61;;;20.05;;
71183;SDS011;58887;51.980;4.464;2022-12-18T04:08:22;23.11;;;20.27;;
71183;SDS011;58887;51.980;4.464;2022-12-18T04:10:49;22.52;;;19.93;;
71183;SDS011;58887;51.980;4.464;2022-12-18T04:13:22;22.33;;;19.75;;
71183;SDS011;58887;51.980;4.464;2022-12-18T04:16:08;22.88;;;19.90;;
71183;SDS011;58887;51.980;4.464;2022-12-18T04:18:34;23.09;;;20.14;;
71183;SDS011;58887;51.980;4.464;2022-12-18T04:21:01;23.50;;;20.55;;
71183;SDS011;58887;51.980;4.464;2022-12-18T04:23:27;22.29;;;19.71;;
71183;SDS011;58887;51.980;4.464;2022-12-18T04:25:53;21.78;;;19.56;;
71183;SDS011;58887;51.980;4.464;2022-12-18T04:28:19;21.56;;;19.44;;
71183;SDS011;58887;51.980;4.464;2022-12-18T04:30:48;23.11;;;20.37;;
71183;SDS011;58887;51.980;4.464;2022-12-18T04:33:14;22.74;;;20.23;;
71183;SDS011;58887;51.980;4.464;2022-12-18T04:35:42;21.47;;;19.42;;
71183;SDS011;58887;51.980;4.464;2022-12-18T04:38:09;23.21;;;20.46;;
71183;SDS011;58887;51.980;4.464;2022-12-18T04:40:35;22.24;;;20.02;;
71183;SDS011;58887;51.980;4.464;2022-12-18T04:43:02;23.22;;;20.26;;
71183;SDS011;58887;51.980;4.464;2022-12-18T04:45:29;22.46;;;19.91;;
71183;SDS011;58887;51.980;4.464;2022-12-18T04:47:56;23.36;;;20.29;;
71183;SDS011;58887;51.980;4.464;2022-12-18T04:50:24;22.44;;;19.70;;
71183;SDS011;58887;51.980;4.464;2022-12-18T04:52:50;24.53;;;21.06;;
71183;SDS011;58887;51.980;4.464;2022-12-18T04:55:15;22.97;;;20.43;;
71183;SDS011;58887;51.980;4.464;2022-12-18T04:57:41;22.60;;;20.13;;
71183;SDS011;58887;51.980;4.464;2022-12-18T05:00:06;23.27;;;20.43;;
71183;SDS011;58887;51.980;4.464;2022-12-18T05:02:32;22.80;;;20.31;;
71183;SDS011;58887;51.980;4.464;2022-12-18T05:04:58;23.25;;;20.66;;
71183;SDS011;58887;51.980;4.464;2022-12-18T05:07:23;22.61;;;20.50;;
71183;SDS011;58887;51.980;4.464;2022-12-18T05:09:49;23.57;;;21.07;;
71183;SDS011;58887;51.980;4.464;2022-12-18T05:12:14;23.76;;;21.09;;
71183;SDS011;58887;51.980;4.464;2022-12-18T05:14:40;22.60;;;20.39;;
71183;SDS011;58887;51.980;4.464;2022-12-18T05:17:06;21.68;;;19.90;;
71183;SDS011;58887;51.980;4.464;2022-12-18T05:19:31;21.91;;;19.83;;
71183;SDS011;58887;51.980;4.464;2022-12-18T05:21:57;21.82;;;19.74;;
71183;SDS011;58887;51.980;4.464;2022-12-18T05:24:22;20.65;;;18.90;;
71183;SDS011;58887;51.980;4.464;2022-12-18T05:26:48;21.20;;;19.38;;
71183;SDS011;58887;51.980;4.464;2022-12-18T05:29:13;19.50;;;18.06;;
71183;SDS011;58887;51.980;4.464;2022-12-18T05:31:39;20.82;;;19.21;;
71183;SDS011;58887;51.980;4.464;2022-12-18T05:34:04;20.97;;;19.28;;
71183;SDS011;58887;51.980;4.464;2022-12-18T05:36:30;21.82;;;19.98;;
71183;SDS011;58887;51.980;4.464;2022-12-18T05:38:55;22.02;;;20.05;;
71183;SDS011;58887;51.980;4.464;2022-12-18T05:41:21;22.35;;;20.28;;
71183;SDS011;58887;51.980;4.464;2022-12-18T05:43:47;21.47;;;19.90;;
71183;SDS011;58887;51.980;4.464;2022-12-18T05:46:13;21.38;;;19.76;;
71183;SDS011;58887;51.980;4.464;2022-12-18T05:48:42;21.47;;;19.77;;
71183;SDS011;58887;51.980;4.464;2022-12-18T05:51:09;20.39;;;18.95;;
71183;SDS011;58887;51.980;4.464;2022-12-18T05:53:39;19.37;;;18.21;;
71183;SDS011;58887;51.980;4.464;2022-12-18T05:56:07;19.64;;;18.74;;
71183;SDS011;58887;51.980;4.464;2022-12-18T05:58:34;20.61;;;19.04;;
71183;SDS011;58887;51.980;4.464;2022-12-18T06:01:11;20.22;;;18.83;;
71183;SDS011;58887;51.980;4.464;2022-12-18T06:03:40;20.95;;;19.57;;
71183;SDS011;58887;51.980;4.464;2022-12-18T06:06:18;19.78;;;18.77;;
71183;SDS011;58887;51.980;4.464;2022-12-18T06:08:47;18.76;;;17.86;;
71183;SDS011;58887;51.980;4.464;2022-12-18T06:11:16;19.76;;;18.55;;
71183;SDS011;58887;51.980;4.464;2022-12-18T06:13:44;20.12;;;18.63;;
71183;SDS011;58887;51.980;4.464;2022-12-18T06:16:10;20.22;;;18.89;;
71183;SDS011;58887;51.980;4.464;2022-12-18T06:18:35;19.92;;;18.78;;
71183;SDS011;58887;51.980;4.464;2022-12-18T06:21:03;20.38;;;19.06;;
71183;SDS011;58887;51.980;4.464;2022-12-18T06:23:29;21.72;;;20.00;;
71183;SDS011;58887;51.980;4.464;2022-12-18T06:25:55;20.61;;;18.94;;
71183;SDS011;58887;51.980;4.464;2022-12-18T06:28:21;20.45;;;19.21;;
71183;SDS011;58887;51.980;4.464;2022-12-18T06:30:47;18.86;;;17.97;;
71183;SDS011;58887;51.980;4.464;2022-12-18T06:33:14;19.10;;;18.02;;
71183;SDS011;58887;51.980;4.464;2022-12-18T06:35:40;19.92;;;18.68;;
71183;SDS011;58887;51.980;4.464;2022-12-18T06:38:06;19.96;;;18.63;;
71183;SDS011;58887;51.980;4.464;2022-12-18T06:40:31;19.59;;;18.29;;
71183;SDS011;58887;51.980;4.464;2022-12-18T06:42:58;18.79;;;17.68;;
71183;SDS011;58887;51.980;4.464;2022-12-18T06:45:23;19.42;;;18.33;;
71183;SDS011;58887;51.980;4.464;2022-12-18T06:47:49;19.31;;;18.00;;
71183;SDS011;58887;51.980;4.464;2022-12-18T06:50:15;19.71;;;18.69;;
71183;SDS011;58887;51.980;4.464;2022-12-18T06:52:40;19.63;;;18.38;;
71183;SDS011;58887;51.980;4.464;2022-12-18T06:55:06;19.77;;;18.60;;
71183;SDS011;58887;51.980;4.464;2022-12-18T06:57:35;19.22;;;18.08;;
71183;SDS011;58887;51.980;4.464;2022-12-18T07:00:02;19.44;;;18.20;;
71183;SDS011;58887;51.980;4.464;2022-12-18T07:02:29;18.67;;;17.83;;
71183;SDS011;58887;51.980;4.464;2022-12-18T07:04:54;18.38;;;17.47;;
71183;SDS011;58887;51.980;4.464;2022-12-18T07:07:20;18.38;;;17.66;;
71183;SDS011;58887;51.980;4.464;2022-12-18T07:09:45;17.90;;;17.03;;
71183;SDS011;58887;51.980;4.464;2022-12-18T07:12:10;17.55;;;16.83;;
71183;SDS011;58887;51.980;4.464;2022-12-18T07:14:36;17.16;;;16.36;;
71183;SDS011;58887;51.980;4.464;2022-12-18T07:17:01;17.03;;;16.36;;
71183;SDS011;58887;51.980;4.464;2022-12-18T07:19:27;16.70;;;16.09;;
71183;SDS011;58887;51.980;4.464;2022-12-18T07:21:52;17.21;;;16.57;;
71183;SDS011;58887;51.980;4.464;2022-12-18T07:24:18;17.00;;;16.33;;
71183;SDS011;58887;51.980;4.464;2022-12-18T07:26:45;15.82;;;15.22;;
71183;SDS011;58887;51.980;4.464;2022-12-18T07:29:11;16.24;;;15.64;;
71183;SDS011;58887;51.980;4.464;2022-12-18T07:31:37;16.07;;;15.44;;
71183;SDS011;58887;51.980;4.464;2022-12-18T07:34:02;15.40;;;14.91;;
71183;SDS011;58887;51.980;4.464;2022-12-18T07:36:28;15.37;;;14.90;;
71183;SDS011;58887;51.980;4.464;2022-12-18T07:38:53;16.27;;;15.62;;
71183;SDS011;58887;51.980;4.464;2022-12-18T07:41:19;15.59;;;15.01;;
71183;SDS011;58887;51.980;4.464;2022-12-18T07:43:45;15.07;;;14.58;;
71183;SDS011;58887;51.980;4.464;2022-12-18T07:46:11;14.22;;;13.85;;
71183;SDS011;58887;51.980;4.464;2022-12-18T07:48:39;14.15;;;13.78;;
71183;SDS011;58887;51.980;4.464;2022-12-18T07:51:06;15.16;;;14.67;;
71183;SDS011;58887;51.980;4.464;2022-12-18T07:53:32;14.71;;;14.40;;
71183;SDS011;58887;51.980;4.464;2022-12-18T07:55:59;14.77;;;14.40;;
71183;SDS011;58887;51.980;4.464;2022-12-18T07:58:28;15.12;;;14.64;;
71183;SDS011;58887;51.980;4.464;2022-12-18T08:00:54;15.08;;;14.59;;
71183;SDS011;58887;51.980;4.464;2022-12-18T08:03:26;14.92;;;14.63;;
71183;SDS011;58887;51.980;4.464;2022-12-18T08:05:52;15.40;;;15.09;;
71183;SDS011;58887;51.980;4.464;2022-12-18T08:08:17;15.33;;;15.02;;
71183;SDS011;58887;51.980;4.464;2022-12-18T08:10:43;15.73;;;15.16;;
71183;SDS011;58887;51.980;4.464;2022-12-18T08:13:08;15.35;;;14.96;;
71183;SDS011;58887;51.980;4.464;2022-12-18T08:15:34;15.03;;;14.69;;
71183;SDS011;58887;51.980;4.464;2022-12-18T08:17:59;15.72;;;15.06;;
71183;SDS011;58887;51.980;4.464;2022-12-18T08:20:24;16.03;;;15.56;;
71183;SDS011;58887;51.980;4.464;2022-12-18T08:22:50;15.27;;;14.81;;
71183;SDS011;58887;51.980;4.464;2022-12-18T08:25:15;14.46;;;14.05;;
71183;SDS011;58887;51.980;4.464;2022-12-18T08:27:41;14.49;;;14.06;;
71183;SDS011;58887;51.980;4.464;2022-12-18T08:30:06;14.98;;;14.57;;
71183;SDS011;58887;51.980;4.464;2022-12-18T08:32:33;14.43;;;14.25;;
71183;SDS011;58887;51.980;4.464;2022-12-18T08:34:58;14.40;;;14.18;;
71183;SDS011;58887;51.980;4.464;2022-12-18T08:37:24;14.12;;;13.79;;
71183;SDS011;58887;51.980;4.464;2022-12-18T08:39:50;15.17;;;14.71;;
71183;SDS011;58887;51.980;4.464;2022-12-18T08:42:15;14.57;;;14.15;;
71183;SDS011;58887;51.980;4.464;2022-12-18T08:44:59;14.43;;;13.98;;
71183;SDS011;58887;51.980;4.464;2022-12-18T08:47:25;14.56;;;14.28;;
71183;SDS011;58887;51.980;4.464;2022-12-18T08:49:51;15.35;;;14.94;;
71183;SDS011;58887;51.980;4.464;2022-12-18T08:52:17;15.18;;;14.86;;
71183;SDS011;58887;51.980;4.464;2022-12-18T08:54:42;15.32;;;14.83;;
71183;SDS011;58887;51.980;4.464;2022-12-18T08:57:08;14.48;;;14.24;;
71183;SDS011;58887;51.980;4.464;2022-12-18T08:59:33;14.77;;;14.39;;
71183;SDS011;58887;51.980;4.464;2022-12-18T09:01:58;15.19;;;14.86;;
71183;SDS011;58887;51.980;4.464;2022-12-18T09:04:24;14.20;;;13.91;;
71183;SDS011;58887;51.980;4.464;2022-12-18T09:06:49;14.79;;;14.53;;
71183;SDS011;58887;51.980;4.464;2022-12-18T09:09:15;15.11;;;14.72;;
71183;SDS011;58887;51.980;4.464;2022-12-18T09:11:40;14.97;;;14.54;;
71183;SDS011;58887;51.980;4.464;2022-12-18T09:14:06;14.88;;;14.51;;
71183;SDS011;58887;51.980;4.464;2022-12-18T09:16:31;15.36;;;15.10;;
71183;SDS011;58887;51.980;4.464;2022-12-18T09:19:00;15.07;;;14.75;;
71183;SDS011;58887;51.980;4.464;2022-12-18T09:21:28;13.67;;;13.48;;
71183;SDS011;58887;51.980;4.464;2022-12-18T09:23:56;14.53;;;14.13;;
71183;SDS011;58887;51.980;4.464;2022-12-18T09:26:22;14.60;;;14.18;;
71183;SDS011;58887;51.980;4.464;2022-12-18T09:28:49;14.91;;;14.69;;
71183;SDS011;58887;51.980;4.464;2022-12-18T09:31:16;14.76;;;14.43;;
71183;SDS011;58887;51.980;4.464;2022-12-18T09:33:43;13.59;;;13.30;;
71183;SDS011;58887;51.980;4.464;2022-12-18T09:36:11;14.03;;;13.76;;
71183;SDS011;58887;51.980;4.464;2022-12-18T09:38:38;14.20;;;14.03;;
71183;SDS011;58887;51.980;4.464;2022-12-18T09:44:03;13.44;;;13.21;;
71183;SDS011;58887;51.980;4.464;2022-12-18T09:46:36;13.61;;;13.40;;
71183;SDS011;58887;51.980;4.464;2022-12-18T09:49:11;13.65;;;13.37;;
71183;SDS011;58887;51.980;4.464;2022-12-18T09:51:45;13.28;;;13.11;;
71183;SDS011;58887;51.980;4.464;2022-12-18T09:54:24;13.69;;;13.41;;
71183;SDS011;58887;51.980;4.464;2022-12-18T09:56:57;13.86;;;13.53;;
71183;SDS011;58887;51.980;4.464;2022-12-18T09:59:24;13.94;;;13.65;;
71183;SDS011;58887;51.980;4.464;2022-12-18T10:01:57;12.93;;;12.81;;
71183;SDS011;58887;51.980;4.464;2022-12-18T10:04:23;13.82;;;13.56;;
71183;SDS011;58887;51.980;4.464;2022-12-18T10:09:55;13.30;;;13.21;;
71183;SDS011;58887;51.980;4.464;2022-12-18T10:12:37;13.39;;;13.13;;
71183;SDS011;58887;51.980;4.464;2022-12-18T10:15:24;13.74;;;13.52;;
71183;SDS011;58887;51.980;4.464;2022-12-18T10:20:32;13.32;;;13.06;;
71183;SDS011;58887;51.980;4.464;2022-12-18T10:23:04;13.49;;;13.29;;
71183;SDS011;58887;51.980;4.464;2022-12-18T10:25:57;12.84;;;12.63;;
71183;SDS011;58887;51.980;4.464;2022-12-18T10:28:32;12.93;;;12.71;;
71183;SDS011;58887;51.980;4.464;2022-12-18T10:31:01;12.93;;;12.77;;
71183;SDS011;58887;51.980;4.464;2022-12-18T10:33:30;12.57;;;12.48;;
71183;SDS011;58887;51.980;4.464;2022-12-18T10:35:57;12.27;;;12.03;;
71183;SDS011;58887;51.980;4.464;2022-12-18T10:38:24;13.10;;;12.86;;
71183;SDS011;58887;51.980;4.464;2022-12-18T10:41:01;12.96;;;12.69;;
71183;SDS011;58887;51.980;4.464;2022-12-18T10:43:39;13.37;;;13.21;;
71183;SDS011;58887;51.980;4.464;2022-12-18T10:48:35;16.88;;;16.69;;
71183;SDS011;58887;51.980;4.464;2022-12-18T10:51:06;18.07;;;17.90;;
71183;SDS011;58887;51.980;4.464;2022-12-18T10:53:33;15.78;;;15.70;;
71183;SDS011;58887;51.980;4.464;2022-12-18T10:56:02;12.91;;;12.74;;
71183;SDS011;58887;51.980;4.464;2022-12-18T10:58:31;12.99;;;12.78;;
71183;SDS011;58887;51.980;4.464;2022-12-18T11:03:38;13.73;;;13.61;;
71183;SDS011;58887;51.980;4.464;2022-12-18T11:06:14;13.25;;;13.08;;
71183;SDS011;58887;51.980;4.464;2022-12-18T11:08:42;13.04;;;12.74;;
71183;SDS011;58887;51.980;4.464;2022-12-18T11:11:22;13.01;;;12.71;;
71183;SDS011;58887;51.980;4.464;2022-12-18T11:14:05;12.61;;;12.33;;
71183;SDS011;58887;51.980;4.464;2022-12-18T11:16:44;12.95;;;12.71;;
71183;SDS011;58887;51.980;4.464;2022-12-18T11:19:26;12.98;;;12.67;;
71183;SDS011;58887;51.980;4.464;2022-12-18T11:21:57;12.77;;;12.60;;
71183;SDS011;58887;51.980;4.464;2022-12-18T11:24:30;12.88;;;12.66;;
71183;SDS011;58887;51.980;4.464;2022-12-18T11:27:00;13.32;;;13.10;;
71183;SDS011;58887;51.980;4.464;2022-12-18T11:29:32;13.12;;;12.92;;
71183;SDS011;58887;51.980;4.464;2022-12-18T11:35:19;13.59;;;13.44;;
71183;SDS011;58887;51.980;4.464;2022-12-18T11:37:59;14.93;;;14.75;;
71183;SDS011;58887;51.980;4.464;2022-12-18T11:40:58;15.41;;;15.21;;
71183;SDS011;58887;51.980;4.464;2022-12-18T11:44:11;23.06;;;22.55;;
71183;SDS011;58887;51.980;4.464;2022-12-18T11:46:46;16.12;;;15.80;;
71183;SDS011;58887;51.980;4.464;2022-12-18T11:49:26;13.01;;;12.79;;
71183;SDS011;58887;51.980;4.464;2022-12-18T11:52:10;11.89;;;11.63;;
71183;SDS011;58887;51.980;4.464;2022-12-18T11:54:43;12.21;;;12.02;;
71183;SDS011;58887;51.980;4.464;2022-12-18T12:05:39;12.81;;;12.58;;
71183;SDS011;58887;51.980;4.464;2022-12-18T12:13:44;12.38;;;12.24;;
71183;SDS011;58887;51.980;4.464;2022-12-18T12:30:05;12.56;;;12.45;;
71183;SDS011;58887;51.980;4.464;2022-12-18T12:35:09;13.49;;;13.22;;
71183;SDS011;58887;51.980;4.464;2022-12-18T12:40:26;12.77;;;12.56;;
71183;SDS011;58887;51.980;4.464;2022-12-18T12:43:04;12.74;;;12.66;;
71183;SDS011;58887;51.980;4.464;2022-12-18T12:45:49;13.38;;;13.19;;
71183;SDS011;58887;51.980;4.464;2022-12-18T12:48:20;13.58;;;13.38;;
71183;SDS011;58887;51.980;4.464;2022-12-18T12:50:52;14.32;;;14.11;;
71183;SDS011;58887;51.980;4.464;2022-12-18T12:53:27;15.74;;;15.51;;
71183;SDS011;58887;51.980;4.464;2022-12-18T12:55:59;14.21;;;13.99;;
71183;SDS011;58887;51.980;4.464;2022-12-18T13:01:43;13.37;;;13.12;;
71183;SDS011;58887;51.980;4.464;2022-12-18T13:04:58;13.51;;;13.31;;
71183;SDS011;58887;51.980;4.464;2022-12-18T13:07:37;12.35;;;12.21;;
71183;SDS011;58887;51.980;4.464;2022-12-18T13:18:18;12.82;;;12.66;;
71183;SDS011;58887;51.980;4.464;2022-12-18T13:25:48;15.44;;;15.09;;
71183;SDS011;58887;51.980;4.464;2022-12-18T13:28:48;13.60;;;13.36;;
71183;SDS011;58887;51.980;4.464;2022-12-18T13:31:12;14.80;;;14.47;;
71183;SDS011;58887;51.980;4.464;2022-12-18T13:34:15;14.60;;;14.37;;
71183;SDS011;58887;51.980;4.464;2022-12-18T13:36:41;13.86;;;13.65;;
71183;SDS011;58887;51.980;4.464;2022-12-18T13:39:11;13.70;;;13.53;;
71183;SDS011;58887;51.980;4.464;2022-12-18T13:41:44;15.30;;;15.12;;
71183;SDS011;58887;51.980;4.464;2022-12-18T13:44:26;17.55;;;17.25;;
71183;SDS011;58887;51.980;4.464;2022-12-18T13:46:58;17.80;;;17.54;;
71183;SDS011;58887;51.980;4.464;2022-12-18T13:52:14;14.01;;;13.88;;
71183;SDS011;58887;51.980;4.464;2022-12-18T13:54:49;14.11;;;13.87;;
71183;SDS011;58887;51.980;4.464;2022-12-18T13:57:34;14.48;;;13.99;;
71183;SDS011;58887;51.980;4.464;2022-12-18T14:02:44;13.53;;;13.33;;
71183;SDS011;58887;51.980;4.464;2022-12-18T14:05:21;13.60;;;13.40;;
71183;SDS011;58887;51.980;4.464;2022-12-18T14:07:47;13.38;;;13.22;;
71183;SDS011;58887;51.980;4.464;2022-12-18T14:10:13;13.74;;;13.54;;
71183;SDS011;58887;51.980;4.464;2022-12-18T14:12:44;12.88;;;12.65;;
71183;SDS011;58887;51.980;4.464;2022-12-18T14:18:00;13.25;;;12.99;;
71183;SDS011;58887;51.980;4.464;2022-12-18T14:20:47;13.00;;;12.86;;
71183;SDS011;58887;51.980;4.464;2022-12-18T14:23:34;13.09;;;12.73;;
71183;SDS011;58887;51.980;4.464;2022-12-18T14:28:47;12.68;;;12.51;;
71183;SDS011;58887;51.980;4.464;2022-12-18T14:31:46;12.81;;;12.58;;
71183;SDS011;58887;51.980;4.464;2022-12-18T14:34:05;12.93;;;12.66;;
71183;SDS011;58887;51.980;4.464;2022-12-18T14:36:30;13.60;;;13.29;;
71183;SDS011;58887;51.980;4.464;2022-12-18T14:38:56;13.87;;;13.58;;
71183;SDS011;58887;51.980;4.464;2022-12-18T14:41:23;13.55;;;13.37;;
71183;SDS011;58887;51.980;4.464;2022-12-18T14:43:51;13.30;;;13.02;;
71183;SDS011;58887;51.980;4.464;2022-12-18T14:46:26;13.25;;;12.98;;
71183;SDS011;58887;51.980;4.464;2022-12-18T14:48:53;14.00;;;13.60;;
71183;SDS011;58887;51.980;4.464;2022-12-18T14:51:23;12.67;;;12.53;;
71183;SDS011;58887;51.980;4.464;2022-12-18T14:53:55;13.11;;;12.97;;
71183;SDS011;58887;51.980;4.464;2022-12-18T14:56:27;13.33;;;13.15;;
71183;SDS011;58887;51.980;4.464;2022-12-18T14:58:57;13.00;;;12.82;;
71183;SDS011;58887;51.980;4.464;2022-12-18T15:04:00;13.37;;;13.14;;
71183;SDS011;58887;51.980;4.464;2022-12-18T15:06:28;12.83;;;12.63;;
71183;SDS011;58887;51.980;4.464;2022-12-18T15:08:58;13.27;;;13.02;;
71183;SDS011;58887;51.980;4.464;2022-12-18T15:16:56;12.76;;;12.58;;
71183;SDS011;58887;51.980;4.464;2022-12-18T15:19:32;12.28;;;12.07;;
71183;SDS011;58887;51.980;4.464;2022-12-18T15:22:03;12.99;;;12.86;;
71183;SDS011;58887;51.980;4.464;2022-12-18T15:24:30;12.71;;;12.54;;
71183;SDS011;58887;51.980;4.464;2022-12-18T15:26:57;13.27;;;13.09;;
71183;SDS011;58887;51.980;4.464;2022-12-18T15:29:24;12.80;;;12.65;;
71183;SDS011;58887;51.980;4.464;2022-12-18T15:32:00;12.83;;;12.64;;
71183;SDS011;58887;51.980;4.464;2022-12-18T15:34:28;13.01;;;12.81;;
71183;SDS011;58887;51.980;4.464;2022-12-18T15:36:54;12.66;;;12.33;;
71183;SDS011;58887;51.980;4.464;2022-12-18T15:39:20;12.63;;;12.42;;
71183;SDS011;58887;51.980;4.464;2022-12-18T15:41:45;12.53;;;12.36;;
71183;SDS011;58887;51.980;4.464;2022-12-18T15:44:30;12.54;;;12.30;;
71183;SDS011;58887;51.980;4.464;2022-12-18T15:46:56;12.61;;;12.38;;
71183;SDS011;58887;51.980;4.464;2022-12-18T15:49:22;13.36;;;13.14;;
71183;SDS011;58887;51.980;4.464;2022-12-18T15:51:58;13.51;;;13.23;;
71183;SDS011;58887;51.980;4.464;2022-12-18T15:54:26;12.59;;;12.35;;
71183;SDS011;58887;51.980;4.464;2022-12-18T15:57:13;13.04;;;12.69;;
71183;SDS011;58887;51.980;4.464;2022-12-18T15:59:52;12.92;;;12.62;;
71183;SDS011;58887;51.980;4.464;2022-12-18T16:02:20;12.50;;;12.31;;
71183;SDS011;58887;51.980;4.464;2022-12-18T16:04:48;12.58;;;12.36;;
71183;SDS011;58887;51.980;4.464;2022-12-18T16:07:14;12.45;;;12.23;;
71183;SDS011;58887;51.980;4.464;2022-12-18T16:09:40;12.28;;;12.13;;
71183;SDS011;58887;51.980;4.464;2022-12-18T16:12:19;13.54;;;13.20;;
71183;SDS011;58887;51.980;4.464;2022-12-18T16:14:47;13.24;;;12.90;;
71183;SDS011;58887;51.980;4.464;2022-12-18T16:17:13;12.74;;;12.54;;
71183;SDS011;58887;51.980;4.464;2022-12-18T16:19:39;12.83;;;12.59;;
71183;SDS011;58887;51.980;4.464;2022-12-18T16:22:24;12.90;;;12.63;;
71183;SDS011;58887;51.980;4.464;2022-12-18T16:24:52;12.98;;;12.79;;
71183;SDS011;58887;51.980;4.464;2022-12-18T16:27:18;13.28;;;12.93;;